sensor_id;sensor_type;location;lat;lon;timestamp;P1;durP1;ratioP1;P2;durP2;ratioP2
2035;SDS011;23642;42.658;23.350;2023-02-07T00:00:26;106.90;;;100.10;;
2035;SDS011;23642;42.658;23.350;2023-02-07T00:02:53;107.63;;;100.78;;
2035;SDS011;23642;42.658;23.350;2023-02-07T00:05:21;107.03;;;99.93;;
2035;SDS011;23642;42.658;23.350;2023-02-07T00:07:48;106.63;;;99.63;;
2035;SDS011;23642;42.658;23.350;2023-02-07T00:10:15;105.85;;;99.15;;
2035;SDS011;23642;42.658;23.350;2023-02-07T00:12:43;109.03;;;102.15;;
2035;SDS011;23642;42.658;23.350;2023-02-07T00:15:10;105.72;;;99.03;;
2035;SDS011;23642;42.658;23.350;2023-02-07T00:17:37;107.55;;;100.13;;
2035;SDS011;23642;42.658;23.350;2023-02-07T00:20:04;106.53;;;99.90;;
2035;SDS011;23642;42.658;23.350;2023-02-07T00:22:34;107.55;;;100.72;;
2035;SDS011;23642;42.658;23.350;2023-02-07T00:25:01;107.47;;;100.72;;
2035;SDS011;23642;42.658;23.350;2023-02-07T00:27:28;107.60;;;100.78;;
2035;SDS011;23642;42.658;23.350;2023-02-07T00:29:59;105.70;;;98.88;;
2035;SDS011;23642;42.658;23.350;2023-02-07T00:32:29;107.88;;;100.97;;
2035;SDS011;23642;42.658;23.350;2023-02-07T00:34:56;109.07;;;101.93;;
2035;SDS011;23642;42.658;23.350;2023-02-07T00:37:23;106.13;;;99.43;;
2035;SDS011;23642;42.658;23.350;2023-02-07T00:39:50;107.20;;;100.45;;
2035;SDS011;23642;42.658;23.350;2023-02-07T00:42:17;107.88;;;100.90;;
2035;SDS011;23642;42.658;23.350;2023-02-07T00:44:44;107.90;;;101.10;;
2035;SDS011;23642;42.658;23.350;2023-02-07T00:47:12;105.55;;;98.85;;
2035;SDS011;23642;42.658;23.350;2023-02-07T00:49:38;105.93;;;99.18;;
2035;SDS011;23642;42.658;23.350;2023-02-07T00:52:07;107.90;;;100.95;;
2035;SDS011;23642;42.658;23.350;2023-02-07T00:54:34;108.28;;;101.45;;
2035;SDS011;23642;42.658;23.350;2023-02-07T00:57:00;107.10;;;100.18;;
2035;SDS011;23642;42.658;23.350;2023-02-07T00:59:27;105.03;;;98.32;;
2035;SDS011;23642;42.658;23.350;2023-02-07T01:01:54;107.70;;;100.93;;
2035;SDS011;23642;42.658;23.350;2023-02-07T01:04:22;108.40;;;101.60;;
2035;SDS011;23642;42.658;23.350;2023-02-07T01:06:49;103.63;;;96.97;;
2035;SDS011;23642;42.658;23.350;2023-02-07T01:09:15;105.88;;;99.22;;
2035;SDS011;23642;42.658;23.350;2023-02-07T01:11:42;106.00;;;99.40;;
2035;SDS011;23642;42.658;23.350;2023-02-07T01:14:09;102.20;;;95.70;;
2035;SDS011;23642;42.658;23.350;2023-02-07T01:16:36;106.18;;;99.32;;
2035;SDS011;23642;42.658;23.350;2023-02-07T01:19:03;104.72;;;98.03;;
2035;SDS011;23642;42.658;23.350;2023-02-07T01:21:34;106.60;;;99.75;;
2035;SDS011;23642;42.658;23.350;2023-02-07T01:24:01;106.13;;;99.53;;
2035;SDS011;23642;42.658;23.350;2023-02-07T01:26:28;106.47;;;99.75;;
2035;SDS011;23642;42.658;23.350;2023-02-07T01:28:55;105.18;;;98.55;;
2035;SDS011;23642;42.658;23.350;2023-02-07T01:31:22;105.13;;;98.43;;
2035;SDS011;23642;42.658;23.350;2023-02-07T01:33:52;105.32;;;98.63;;
2035;SDS011;23642;42.658;23.350;2023-02-07T01:36:20;104.95;;;98.05;;
2035;SDS011;23642;42.658;23.350;2023-02-07T01:38:50;105.47;;;98.72;;
2035;SDS011;23642;42.658;23.350;2023-02-07T01:41:17;108.07;;;101.28;;
2035;SDS011;23642;42.658;23.350;2023-02-07T01:43:51;107.22;;;100.07;;
2035;SDS011;23642;42.658;23.350;2023-02-07T01:46:19;106.65;;;99.85;;
2035;SDS011;23642;42.658;23.350;2023-02-07T01:48:46;105.82;;;99.13;;
2035;SDS011;23642;42.658;23.350;2023-02-07T01:51:13;105.20;;;98.60;;
2035;SDS011;23642;42.658;23.350;2023-02-07T01:53:41;104.90;;;98.40;;
2035;SDS011;23642;42.658;23.350;2023-02-07T01:56:11;106.72;;;99.90;;
2035;SDS011;23642;42.658;23.350;2023-02-07T01:58:40;107.70;;;100.90;;
2035;SDS011;23642;42.658;23.350;2023-02-07T02:01:09;107.05;;;100.25;;
2035;SDS011;23642;42.658;23.350;2023-02-07T02:03:41;106.65;;;99.85;;
2035;SDS011;23642;42.658;23.350;2023-02-07T02:06:11;106.40;;;99.30;;
2035;SDS011;23642;42.658;23.350;2023-02-07T02:08:42;110.60;;;103.60;;
2035;SDS011;23642;42.658;23.350;2023-02-07T02:11:17;107.28;;;100.28;;
2035;SDS011;23642;42.658;23.350;2023-02-07T02:14:00;103.20;;;96.28;;
2035;SDS011;23642;42.658;23.350;2023-02-07T02:16:39;107.20;;;100.40;;
2035;SDS011;23642;42.658;23.350;2023-02-07T02:19:19;107.30;;;100.20;;
2035;SDS011;23642;42.658;23.350;2023-02-07T02:22:22;106.45;;;99.75;;
2035;SDS011;23642;42.658;23.350;2023-02-07T02:25:17;107.72;;;100.82;;
2035;SDS011;23642;42.658;23.350;2023-02-07T02:28:06;107.35;;;100.55;;
2035;SDS011;23642;42.658;23.350;2023-02-07T02:33:52;109.07;;;102.05;;
2035;SDS011;23642;42.658;23.350;2023-02-07T02:36:25;105.10;;;98.45;;
2035;SDS011;23642;42.658;23.350;2023-02-07T02:39:01;108.35;;;101.35;;
2035;SDS011;23642;42.658;23.350;2023-02-07T02:41:36;108.20;;;101.25;;
2035;SDS011;23642;42.658;23.350;2023-02-07T02:44:07;106.47;;;99.68;;
2035;SDS011;23642;42.658;23.350;2023-02-07T02:46:39;108.32;;;101.22;;
2035;SDS011;23642;42.658;23.350;2023-02-07T02:49:09;106.18;;;99.47;;
2035;SDS011;23642;42.658;23.350;2023-02-07T02:51:38;109.93;;;102.70;;
2035;SDS011;23642;42.658;23.350;2023-02-07T02:56:57;104.22;;;97.55;;
2035;SDS011;23642;42.658;23.350;2023-02-07T02:59:49;105.97;;;99.25;;
2035;SDS011;23642;42.658;23.350;2023-02-07T03:02:54;107.05;;;100.28;;
2035;SDS011;23642;42.658;23.350;2023-02-07T03:05:35;106.45;;;99.45;;
2035;SDS011;23642;42.658;23.350;2023-02-07T03:08:11;108.25;;;101.35;;
2035;SDS011;23642;42.658;23.350;2023-02-07T03:10:52;108.80;;;101.70;;
2035;SDS011;23642;42.658;23.350;2023-02-07T03:13:25;108.35;;;101.10;;
2035;SDS011;23642;42.658;23.350;2023-02-07T03:15:59;106.65;;;99.78;;
2035;SDS011;23642;42.658;23.350;2023-02-07T03:18:38;108.57;;;101.45;;
2035;SDS011;23642;42.658;23.350;2023-02-07T03:21:11;107.28;;;100.20;;
2035;SDS011;23642;42.658;23.350;2023-02-07T03:23:44;107.80;;;100.47;;
2035;SDS011;23642;42.658;23.350;2023-02-07T03:26:12;108.57;;;101.55;;
2035;SDS011;23642;42.658;23.350;2023-02-07T03:28:40;110.28;;;102.97;;
2035;SDS011;23642;42.658;23.350;2023-02-07T03:31:09;106.57;;;99.85;;
2035;SDS011;23642;42.658;23.350;2023-02-07T03:33:40;105.80;;;99.07;;
2035;SDS011;23642;42.658;23.350;2023-02-07T03:36:13;106.95;;;100.15;;
2035;SDS011;23642;42.658;23.350;2023-02-07T03:38:43;107.32;;;100.63;;
2035;SDS011;23642;42.658;23.350;2023-02-07T03:41:10;109.28;;;102.25;;
2035;SDS011;23642;42.658;23.350;2023-02-07T03:43:43;111.35;;;104.13;;
2035;SDS011;23642;42.658;23.350;2023-02-07T03:46:10;107.63;;;100.72;;
2035;SDS011;23642;42.658;23.350;2023-02-07T03:48:37;107.53;;;100.82;;
2035;SDS011;23642;42.658;23.350;2023-02-07T03:51:04;109.85;;;102.85;;
2035;SDS011;23642;42.658;23.350;2023-02-07T03:53:33;108.43;;;101.55;;
2035;SDS011;23642;42.658;23.350;2023-02-07T03:55:59;107.72;;;100.90;;
2035;SDS011;23642;42.658;23.350;2023-02-07T03:58:26;108.60;;;101.22;;
2035;SDS011;23642;42.658;23.350;2023-02-07T04:01:03;108.30;;;101.28;;
2035;SDS011;23642;42.658;23.350;2023-02-07T04:03:30;108.43;;;101.50;;
2035;SDS011;23642;42.658;23.350;2023-02-07T04:05:56;109.35;;;102.35;;
2035;SDS011;23642;42.658;23.350;2023-02-07T04:08:23;109.72;;;102.63;;
2035;SDS011;23642;42.658;23.350;2023-02-07T04:10:58;109.95;;;102.68;;
2035;SDS011;23642;42.658;23.350;2023-02-07T04:13:26;110.70;;;103.70;;
2035;SDS011;23642;42.658;23.350;2023-02-07T04:15:56;110.28;;;103.18;;
2035;SDS011;23642;42.658;23.350;2023-02-07T04:18:22;109.00;;;101.80;;
2035;SDS011;23642;42.658;23.350;2023-02-07T04:20:49;107.97;;;101.07;;
2035;SDS011;23642;42.658;23.350;2023-02-07T04:23:16;110.00;;;103.00;;
2035;SDS011;23642;42.658;23.350;2023-02-07T04:25:47;109.75;;;102.80;;
2035;SDS011;23642;42.658;23.350;2023-02-07T04:28:19;112.63;;;105.32;;
2035;SDS011;23642;42.658;23.350;2023-02-07T04:31:16;111.95;;;104.65;;
2035;SDS011;23642;42.658;23.350;2023-02-07T04:33:49;110.30;;;103.15;;
2035;SDS011;23642;42.658;23.350;2023-02-07T04:36:17;111.75;;;104.65;;
2035;SDS011;23642;42.658;23.350;2023-02-07T04:38:44;115.82;;;108.25;;
2035;SDS011;23642;42.658;23.350;2023-02-07T04:41:16;114.93;;;107.25;;
2035;SDS011;23642;42.658;23.350;2023-02-07T04:43:44;113.03;;;105.43;;
2035;SDS011;23642;42.658;23.350;2023-02-07T04:46:11;110.70;;;103.28;;
2035;SDS011;23642;42.658;23.350;2023-02-07T04:48:44;113.82;;;106.50;;
2035;SDS011;23642;42.658;23.350;2023-02-07T04:51:13;114.72;;;107.30;;
2035;SDS011;23642;42.658;23.350;2023-02-07T04:53:40;112.88;;;105.70;;
2035;SDS011;23642;42.658;23.350;2023-02-07T04:56:07;114.85;;;107.43;;
2035;SDS011;23642;42.658;23.350;2023-02-07T04:58:34;114.85;;;107.45;;
2035;SDS011;23642;42.658;23.350;2023-02-07T05:01:02;115.50;;;107.80;;
2035;SDS011;23642;42.658;23.350;2023-02-07T05:03:29;111.88;;;104.47;;
2035;SDS011;23642;42.658;23.350;2023-02-07T05:05:58;114.20;;;106.63;;
2035;SDS011;23642;42.658;23.350;2023-02-07T05:08:28;112.10;;;104.68;;
2035;SDS011;23642;42.658;23.350;2023-02-07T05:10:57;113.47;;;105.90;;
2035;SDS011;23642;42.658;23.350;2023-02-07T05:13:24;111.63;;;104.28;;
2035;SDS011;23642;42.658;23.350;2023-02-07T05:15:53;111.25;;;104.15;;
2035;SDS011;23642;42.658;23.350;2023-02-07T05:18:21;112.88;;;105.50;;
2035;SDS011;23642;42.658;23.350;2023-02-07T05:20:51;115.40;;;107.75;;
2035;SDS011;23642;42.658;23.350;2023-02-07T05:23:19;114.68;;;106.82;;
2035;SDS011;23642;42.658;23.350;2023-02-07T05:26:12;114.93;;;107.43;;
2035;SDS011;23642;42.658;23.350;2023-02-07T05:28:50;112.88;;;105.47;;
2035;SDS011;23642;42.658;23.350;2023-02-07T05:31:27;117.72;;;110.13;;
2035;SDS011;23642;42.658;23.350;2023-02-07T05:34:18;113.88;;;106.50;;
2035;SDS011;23642;42.658;23.350;2023-02-07T05:36:45;112.00;;;104.70;;
2035;SDS011;23642;42.658;23.350;2023-02-07T05:39:17;112.93;;;105.43;;
2035;SDS011;23642;42.658;23.350;2023-02-07T05:41:57;115.60;;;108.22;;
2035;SDS011;23642;42.658;23.350;2023-02-07T05:44:39;113.18;;;105.78;;
2035;SDS011;23642;42.658;23.350;2023-02-07T05:47:10;112.97;;;105.03;;
2035;SDS011;23642;42.658;23.350;2023-02-07T05:49:41;115.00;;;107.60;;
2035;SDS011;23642;42.658;23.350;2023-02-07T05:52:14;114.95;;;107.28;;
2035;SDS011;23642;42.658;23.350;2023-02-07T05:54:44;112.97;;;105.60;;
2035;SDS011;23642;42.658;23.350;2023-02-07T05:57:13;113.95;;;106.45;;
2035;SDS011;23642;42.658;23.350;2023-02-07T05:59:40;116.65;;;108.90;;
2035;SDS011;23642;42.658;23.350;2023-02-07T06:02:19;113.80;;;106.07;;
2035;SDS011;23642;42.658;23.350;2023-02-07T06:04:53;115.15;;;107.30;;
2035;SDS011;23642;42.658;23.350;2023-02-07T06:07:20;116.15;;;108.25;;
2035;SDS011;23642;42.658;23.350;2023-02-07T06:09:47;117.63;;;109.93;;
2035;SDS011;23642;42.658;23.350;2023-02-07T06:12:13;111.47;;;104.07;;
2035;SDS011;23642;42.658;23.350;2023-02-07T06:14:40;117.13;;;108.18;;
2035;SDS011;23642;42.658;23.350;2023-02-07T06:17:07;118.38;;;110.30;;
2035;SDS011;23642;42.658;23.350;2023-02-07T06:19:34;114.47;;;106.63;;
2035;SDS011;23642;42.658;23.350;2023-02-07T06:22:02;117.40;;;109.40;;
2035;SDS011;23642;42.658;23.350;2023-02-07T06:27:47;116.45;;;108.55;;
2035;SDS011;23642;42.658;23.350;2023-02-07T06:30:16;116.45;;;108.60;;
2035;SDS011;23642;42.658;23.350;2023-02-07T06:32:47;115.47;;;107.47;;
2035;SDS011;23642;42.658;23.350;2023-02-07T06:35:33;120.80;;;111.90;;
2035;SDS011;23642;42.658;23.350;2023-02-07T06:38:02;117.25;;;109.20;;
2035;SDS011;23642;42.658;23.350;2023-02-07T06:40:31;114.00;;;106.35;;
2035;SDS011;23642;42.658;23.350;2023-02-07T06:42:58;118.93;;;110.65;;
2035;SDS011;23642;42.658;23.350;2023-02-07T06:45:25;115.32;;;107.45;;
2035;SDS011;23642;42.658;23.350;2023-02-07T06:47:52;117.93;;;109.70;;
2035;SDS011;23642;42.658;23.350;2023-02-07T06:50:18;119.07;;;110.97;;
2035;SDS011;23642;42.658;23.350;2023-02-07T06:52:50;117.22;;;109.18;;
2035;SDS011;23642;42.658;23.350;2023-02-07T06:55:18;118.68;;;110.30;;
2035;SDS011;23642;42.658;23.350;2023-02-07T06:57:48;120.05;;;111.75;;
2035;SDS011;23642;42.658;23.350;2023-02-07T07:00:15;118.28;;;109.88;;
2035;SDS011;23642;42.658;23.350;2023-02-07T07:02:42;117.18;;;108.78;;
2035;SDS011;23642;42.658;23.350;2023-02-07T07:05:09;118.47;;;110.22;;
2035;SDS011;23642;42.658;23.350;2023-02-07T07:07:36;119.60;;;111.40;;
2035;SDS011;23642;42.658;23.350;2023-02-07T07:10:03;121.20;;;112.47;;
2035;SDS011;23642;42.658;23.350;2023-02-07T07:12:32;118.25;;;109.85;;
2035;SDS011;23642;42.658;23.350;2023-02-07T07:15:00;119.28;;;111.00;;
2035;SDS011;23642;42.658;23.350;2023-02-07T07:17:28;120.18;;;111.78;;
2035;SDS011;23642;42.658;23.350;2023-02-07T07:20:01;117.65;;;109.45;;
2035;SDS011;23642;42.658;23.350;2023-02-07T07:22:28;117.53;;;109.18;;
2035;SDS011;23642;42.658;23.350;2023-02-07T07:24:55;120.13;;;111.40;;
2035;SDS011;23642;42.658;23.350;2023-02-07T07:27:28;117.85;;;109.78;;
2035;SDS011;23642;42.658;23.350;2023-02-07T07:32:51;122.35;;;113.90;;
2035;SDS011;23642;42.658;23.350;2023-02-07T07:58:45;119.00;;;110.40;;
2035;SDS011;23642;42.658;23.350;2023-02-07T08:01:19;118.40;;;110.25;;
2035;SDS011;23642;42.658;23.350;2023-02-07T08:16:45;117.97;;;109.70;;
2035;SDS011;23642;42.658;23.350;2023-02-07T09:33:36;114.13;;;106.10;;
2035;SDS011;23642;42.658;23.350;2023-02-07T10:04:43;110.68;;;102.13;;
2035;SDS011;23642;42.658;23.350;2023-02-07T10:22:01;113.05;;;105.47;;
2035;SDS011;23642;42.658;23.350;2023-02-07T10:34:39;114.45;;;106.35;;
2035;SDS011;23642;42.658;23.350;2023-02-07T10:41:06;116.43;;;107.75;;
2035;SDS011;23642;42.658;23.350;2023-02-07T10:52:10;110.00;;;102.30;;
2035;SDS011;23642;42.658;23.350;2023-02-07T12:08:03;108.65;;;101.50;;
2035;SDS011;23642;42.658;23.350;2023-02-07T12:42:31;108.88;;;100.68;;
2035;SDS011;23642;42.658;23.350;2023-02-07T12:45:50;110.55;;;103.22;;
2035;SDS011;23642;42.658;23.350;2023-02-07T12:48:35;108.88;;;101.47;;
2035;SDS011;23642;42.658;23.350;2023-02-07T13:01:52;110.72;;;103.38;;
2035;SDS011;23642;42.658;23.350;2023-02-07T13:11:19;109.93;;;102.60;;
2035;SDS011;23642;42.658;23.350;2023-02-07T13:14:34;108.78;;;101.43;;
2035;SDS011;23642;42.658;23.350;2023-02-07T13:31:36;109.00;;;101.82;;
2035;SDS011;23642;42.658;23.350;2023-02-07T14:25:22;110.30;;;102.60;;
2035;SDS011;23642;42.658;23.350;2023-02-07T14:50:39;110.60;;;102.90;;
2035;SDS011;23642;42.658;23.350;2023-02-07T14:53:17;108.22;;;101.03;;
2035;SDS011;23642;42.658;23.350;2023-02-07T14:55:51;106.20;;;98.85;;
2035;SDS011;23642;42.658;23.350;2023-02-07T14:58:24;108.50;;;100.78;;
2035;SDS011;23642;42.658;23.350;2023-02-07T15:00:57;110.32;;;102.55;;
2035;SDS011;23642;42.658;23.350;2023-02-07T15:03:27;111.22;;;103.53;;
2035;SDS011;23642;42.658;23.350;2023-02-07T15:09:15;108.60;;;100.90;;
2035;SDS011;23642;42.658;23.350;2023-02-07T15:15:59;112.20;;;104.32;;
2035;SDS011;23642;42.658;23.350;2023-02-07T15:24:35;109.70;;;101.93;;
2035;SDS011;23642;42.658;23.350;2023-02-07T15:29:59;112.05;;;104.32;;
2035;SDS011;23642;42.658;23.350;2023-02-07T15:36:29;108.90;;;101.22;;
2035;SDS011;23642;42.658;23.350;2023-02-07T15:42:04;110.95;;;102.95;;
2035;SDS011;23642;42.658;23.350;2023-02-07T15:44:35;113.85;;;105.05;;
2035;SDS011;23642;42.658;23.350;2023-02-07T15:50:14;111.65;;;103.82;;
2035;SDS011;23642;42.658;23.350;2023-02-07T15:52:49;112.20;;;104.07;;
2035;SDS011;23642;42.658;23.350;2023-02-07T16:02:10;117.78;;;108.88;;
2035;SDS011;23642;42.658;23.350;2023-02-07T16:04:50;116.38;;;107.68;;
2035;SDS011;23642;42.658;23.350;2023-02-07T16:07:19;113.85;;;105.78;;
2035;SDS011;23642;42.658;23.350;2023-02-07T16:09:48;115.30;;;106.40;;
2035;SDS011;23642;42.658;23.350;2023-02-07T16:12:32;117.88;;;109.18;;
2035;SDS011;23642;42.658;23.350;2023-02-07T16:15:23;114.30;;;105.80;;
2035;SDS011;23642;42.658;23.350;2023-02-07T16:17:52;114.28;;;106.00;;
2035;SDS011;23642;42.658;23.350;2023-02-07T16:20:19;116.28;;;107.63;;
2035;SDS011;23642;42.658;23.350;2023-02-07T16:22:47;117.00;;;108.50;;
2035;SDS011;23642;42.658;23.350;2023-02-07T16:25:16;115.75;;;107.32;;
2035;SDS011;23642;42.658;23.350;2023-02-07T16:27:52;116.38;;;107.82;;
2035;SDS011;23642;42.658;23.350;2023-02-07T16:30:23;119.45;;;110.22;;
2035;SDS011;23642;42.658;23.350;2023-02-07T16:32:55;117.32;;;107.97;;
2035;SDS011;23642;42.658;23.350;2023-02-07T16:35:23;119.97;;;110.97;;
2035;SDS011;23642;42.658;23.350;2023-02-07T16:37:51;114.88;;;106.13;;
2035;SDS011;23642;42.658;23.350;2023-02-07T16:40:20;115.97;;;107.32;;
2035;SDS011;23642;42.658;23.350;2023-02-07T16:42:48;115.38;;;106.72;;
2035;SDS011;23642;42.658;23.350;2023-02-07T16:45:28;114.60;;;106.07;;
2035;SDS011;23642;42.658;23.350;2023-02-07T16:48:16;115.70;;;106.90;;
2035;SDS011;23642;42.658;23.350;2023-02-07T16:50:48;113.45;;;105.05;;
2035;SDS011;23642;42.658;23.350;2023-02-07T16:53:15;115.88;;;107.07;;
2035;SDS011;23642;42.658;23.350;2023-02-07T16:55:43;116.53;;;107.72;;
2035;SDS011;23642;42.658;23.350;2023-02-07T16:58:14;115.68;;;107.43;;
2035;SDS011;23642;42.658;23.350;2023-02-07T17:00:51;116.57;;;108.32;;
2035;SDS011;23642;42.658;23.350;2023-02-07T17:03:18;115.05;;;106.43;;
2035;SDS011;23642;42.658;23.350;2023-02-07T17:05:45;113.47;;;105.10;;
2035;SDS011;23642;42.658;23.350;2023-02-07T17:08:14;119.38;;;110.30;;
2035;SDS011;23642;42.658;23.350;2023-02-07T17:10:42;118.45;;;109.50;;
2035;SDS011;23642;42.658;23.350;2023-02-07T17:13:18;117.53;;;108.82;;
2035;SDS011;23642;42.658;23.350;2023-02-07T17:15:45;119.05;;;110.00;;
2035;SDS011;23642;42.658;23.350;2023-02-07T17:18:12;115.40;;;106.82;;
2035;SDS011;23642;42.658;23.350;2023-02-07T17:20:40;112.13;;;104.13;;
2035;SDS011;23642;42.658;23.350;2023-02-07T17:23:10;115.75;;;107.00;;
2035;SDS011;23642;42.658;23.350;2023-02-07T17:25:36;118.93;;;109.93;;
2035;SDS011;23642;42.658;23.350;2023-02-07T17:30:50;115.53;;;107.00;;
2035;SDS011;23642;42.658;23.350;2023-02-07T17:33:23;115.30;;;107.15;;
2035;SDS011;23642;42.658;23.350;2023-02-07T17:43:01;114.45;;;106.00;;
2035;SDS011;23642;42.658;23.350;2023-02-07T17:53:42;117.07;;;108.13;;
2035;SDS011;23642;42.658;23.350;2023-02-07T17:55:52;116.65;;;107.82;;
2035;SDS011;23642;42.658;23.350;2023-02-07T17:58:18;116.03;;;107.35;;
2035;SDS011;23642;42.658;23.350;2023-02-07T18:00:45;115.90;;;106.97;;
2035;SDS011;23642;42.658;23.350;2023-02-07T18:03:12;119.35;;;110.10;;
2035;SDS011;23642;42.658;23.350;2023-02-07T18:08:58;116.93;;;107.78;;
2035;SDS011;23642;42.658;23.350;2023-02-07T18:11:25;117.72;;;109.10;;
2035;SDS011;23642;42.658;23.350;2023-02-07T18:14:24;124.13;;;114.72;;
2035;SDS011;23642;42.658;23.350;2023-02-07T18:16:51;118.88;;;110.20;;
2035;SDS011;23642;42.658;23.350;2023-02-07T18:19:34;118.75;;;109.75;;
2035;SDS011;23642;42.658;23.350;2023-02-07T18:22:06;116.28;;;107.55;;
2035;SDS011;23642;42.658;23.350;2023-02-07T18:35:10;118.07;;;109.03;;
2035;SDS011;23642;42.658;23.350;2023-02-07T18:43:35;118.30;;;109.50;;
2035;SDS011;23642;42.658;23.350;2023-02-07T18:46:05;115.72;;;107.22;;
2035;SDS011;23642;42.658;23.350;2023-02-07T18:48:33;119.30;;;110.15;;
2035;SDS011;23642;42.658;23.350;2023-02-07T18:51:04;115.65;;;107.28;;
2035;SDS011;23642;42.658;23.350;2023-02-07T18:53:34;115.65;;;106.85;;
2035;SDS011;23642;42.658;23.350;2023-02-07T18:56:02;119.03;;;110.18;;
2035;SDS011;23642;42.658;23.350;2023-02-07T18:58:30;118.47;;;109.40;;
2035;SDS011;23642;42.658;23.350;2023-02-07T19:01:09;120.70;;;111.35;;
2035;SDS011;23642;42.658;23.350;2023-02-07T19:03:39;119.05;;;109.55;;
2035;SDS011;23642;42.658;23.350;2023-02-07T19:13:23;116.95;;;108.20;;
2035;SDS011;23642;42.658;23.350;2023-02-07T19:15:50;121.03;;;111.53;;
2035;SDS011;23642;42.658;23.350;2023-02-07T19:24:53;113.95;;;105.28;;
2035;SDS011;23642;42.658;23.350;2023-02-07T19:46:40;117.60;;;108.90;;
2035;SDS011;23642;42.658;23.350;2023-02-07T19:52:05;116.75;;;107.85;;
2035;SDS011;23642;42.658;23.350;2023-02-07T19:54:46;114.03;;;105.55;;
2035;SDS011;23642;42.658;23.350;2023-02-07T19:57:14;117.07;;;108.03;;
2035;SDS011;23642;42.658;23.350;2023-02-07T19:59:42;113.10;;;104.95;;
2035;SDS011;23642;42.658;23.350;2023-02-07T20:31:02;117.63;;;108.75;;
2035;SDS011;23642;42.658;23.350;2023-02-07T20:44:38;117.78;;;108.85;;
2035;SDS011;23642;42.658;23.350;2023-02-07T20:54:27;114.18;;;105.90;;
2035;SDS011;23642;42.658;23.350;2023-02-07T21:07:05;115.45;;;106.90;;
2035;SDS011;23642;42.658;23.350;2023-02-07T21:09:52;112.25;;;103.90;;
2035;SDS011;23642;42.658;23.350;2023-02-07T21:12:40;115.05;;;106.40;;
2035;SDS011;23642;42.658;23.350;2023-02-07T21:15:09;112.68;;;104.45;;
2035;SDS011;23642;42.658;23.350;2023-02-07T21:17:53;110.10;;;102.10;;
2035;SDS011;23642;42.658;23.350;2023-02-07T21:20:37;113.40;;;104.78;;
2035;SDS011;23642;42.658;23.350;2023-02-07T21:23:05;113.22;;;104.95;;
2035;SDS011;23642;42.658;23.350;2023-02-07T22:06:22;111.40;;;103.70;;
2035;SDS011;23642;42.658;23.350;2023-02-07T22:12:13;108.45;;;100.97;;
2035;SDS011;23642;42.658;23.350;2023-02-07T22:14:58;112.72;;;104.72;;
2035;SDS011;23642;42.658;23.350;2023-02-07T22:17:34;112.93;;;104.63;;
2035;SDS011;23642;42.658;23.350;2023-02-07T22:21:30;109.65;;;101.40;;
2035;SDS011;23642;42.658;23.350;2023-02-07T22:23:03;112.22;;;104.10;;
2035;SDS011;23642;42.658;23.350;2023-02-07T22:26:48;108.57;;;101.15;;
2035;SDS011;23642;42.658;23.350;2023-02-07T22:35:11;106.93;;;99.60;;
2035;SDS011;23642;42.658;23.350;2023-02-07T22:40:28;110.55;;;102.88;;
2035;SDS011;23642;42.658;23.350;2023-02-07T22:45:47;109.57;;;101.78;;
2035;SDS011;23642;42.658;23.350;2023-02-07T22:48:29;111.25;;;102.80;;
2035;SDS011;23642;42.658;23.350;2023-02-07T22:51:32;110.28;;;102.65;;
2035;SDS011;23642;42.658;23.350;2023-02-07T22:54:02;113.55;;;105.35;;
2035;SDS011;23642;42.658;23.350;2023-02-07T22:59:25;111.03;;;102.78;;
2035;SDS011;23642;42.658;23.350;2023-02-07T23:10:55;108.65;;;101.15;;
2035;SDS011;23642;42.658;23.350;2023-02-07T23:26:11;107.72;;;100.10;;
2035;SDS011;23642;42.658;23.350;2023-02-07T23:28:57;110.68;;;103.07;;
2035;SDS011;23642;42.658;23.350;2023-02-07T23:31:53;111.40;;;103.40;;
2035;SDS011;23642;42.658;23.350;2023-02-07T23:34:26;108.45;;;100.82;;
2035;SDS011;23642;42.658;23.350;2023-02-07T23:40:53;108.00;;;100.25;;
2035;SDS011;23642;42.658;23.350;2023-02-07T23:46:51;108.78;;;100.95;;
2035;SDS011;23642;42.658;23.350;2023-02-07T23:50:00;110.55;;;102.85;;
2035;SDS011;23642;42.658;23.350;2023-02-07T23:52:27;106.53;;;99.05;;
2035;SDS011;23642;42.658;23.350;2023-02-07T23:54:54;111.55;;;103.60;;
2035;SDS011;23642;42.658;23.350;2023-02-07T23:57:22;107.15;;;99.78;;
